createdAt,value
2019-05-14T00:00:45.941Z,8.50
2019-05-14T00:03:17.712Z,8.40
2019-05-14T00:05:51.477Z,8.30
2019-05-14T00:08:22.363Z,8.40
2019-05-14T00:10:53.857Z,8.40
2019-05-14T00:13:25.354Z,8.40
2019-05-14T00:15:57.306Z,8.40
2019-05-14T00:18:31.252Z,8.30
2019-05-14T00:21:02.151Z,8.20
2019-05-14T00:23:33.557Z,8.30
2019-05-14T00:26:05.307Z,8.20
2019-05-14T00:28:36.893Z,8.30
2019-05-14T00:31:08.353Z,8.20
2019-05-14T00:33:41.947Z,8.20
2019-05-14T00:36:14.003Z,8.20
2019-05-14T00:38:45.803Z,8.20
2019-05-14T00:41:18.594Z,8.10
2019-05-14T00:43:51.363Z,8.20
2019-05-14T00:46:24.341Z,8.10
2019-05-14T00:48:56.384Z,8.10
2019-05-14T00:51:27.811Z,8.00
2019-05-14T00:54:01.535Z,8.10
2019-05-14T00:56:32.376Z,8.20
2019-05-14T00:59:04.180Z,8.00
2019-05-14T01:01:35.938Z,8.00
2019-05-14T01:04:07.891Z,8.00
2019-05-14T01:06:39.184Z,7.90
2019-05-14T01:09:11.408Z,7.90
2019-05-14T01:11:43.184Z,8.00
2019-05-14T01:14:14.861Z,8.00
2019-05-14T01:16:46.129Z,8.00
2019-05-14T01:19:18.466Z,8.10
2019-05-14T01:21:51.047Z,8.00
2019-05-14T01:24:22.653Z,8.00
2019-05-14T01:26:53.955Z,8.00
2019-05-14T01:29:25.405Z,8.00
2019-05-14T01:31:56.762Z,8.00
2019-05-14T01:34:28.216Z,8.00
2019-05-14T01:37:02.222Z,8.00
2019-05-14T01:39:33.525Z,8.00
2019-05-14T01:42:05.010Z,8.00
2019-05-14T01:44:36.611Z,8.10
2019-05-14T01:47:08.360Z,8.00
2019-05-14T01:49:42.477Z,8.00
2019-05-14T01:52:13.555Z,8.00
2019-05-14T01:54:46.744Z,8.00
2019-05-14T01:57:18.403Z,8.00
2019-05-14T01:59:51.708Z,8.00
2019-05-14T02:02:23.681Z,8.00
2019-05-14T02:04:55.209Z,7.90
2019-05-14T02:07:26.751Z,7.90
2019-05-14T02:10:01.161Z,7.90
2019-05-14T02:12:32.287Z,7.80
2019-05-14T02:15:04.349Z,7.90
2019-05-14T02:17:36.111Z,7.90
2019-05-14T02:20:08.222Z,7.80
2019-05-14T02:22:41.733Z,7.90
2019-05-14T02:25:12.782Z,7.80
2019-05-14T02:27:44.647Z,7.80
2019-05-14T02:30:20.246Z,7.80
2019-05-14T02:32:50.257Z,7.80
2019-05-14T02:35:21.997Z,7.70
2019-05-14T02:37:53.682Z,7.70
2019-05-14T02:40:25.403Z,7.70
2019-05-14T02:42:59.344Z,7.60
2019-05-14T02:45:31.441Z,7.60
2019-05-14T02:48:02.912Z,7.60
2019-05-14T02:50:34.284Z,7.60
2019-05-14T02:53:05.964Z,7.60
2019-05-14T02:55:39.033Z,7.60
2019-05-14T02:58:11.058Z,7.50
2019-05-14T03:00:42.537Z,7.60
2019-05-14T03:03:13.941Z,7.60
2019-05-14T03:05:45.221Z,7.50
2019-05-14T03:08:19.520Z,7.50
2019-05-14T03:10:50.515Z,7.60
2019-05-14T03:13:22.620Z,7.60
2019-05-14T03:15:59.027Z,7.60
2019-05-14T03:18:30.064Z,7.60
2019-05-14T03:21:01.696Z,7.60
2019-05-14T03:23:34.915Z,7.70
2019-05-14T03:26:09.351Z,7.60
2019-05-14T03:28:39.991Z,7.60
2019-05-14T03:31:13.148Z,7.60
2019-05-14T03:33:45.159Z,8.00
2019-05-14T03:36:23.961Z,10.20
2019-05-14T03:38:50.854Z,11.90
2019-05-14T03:41:22.750Z,12.10
2019-05-14T03:43:54.059Z,12.40
2019-05-14T03:46:43.492Z,13.00
2019-05-14T03:49:00.091Z,13.70
2019-05-14T03:51:33.139Z,13.60
2019-05-14T03:54:07.715Z,15.20
2019-05-14T03:56:40.065Z,15.10
2019-05-14T03:59:11.565Z,15.00
2019-05-14T04:01:44.648Z,16.30
2019-05-14T04:04:19.450Z,15.80
2019-05-14T04:06:53.595Z,16.60
2019-05-14T04:09:29.379Z,16.90
2019-05-14T04:12:02.452Z,16.00
2019-05-14T04:14:34.802Z,16.40
2019-05-14T04:17:14.349Z,17.80
2019-05-14T04:19:43.680Z,18.20
2019-05-14T04:22:19.172Z,17.90
2019-05-14T04:24:52.083Z,17.30
2019-05-14T04:27:25.164Z,17.40
2019-05-14T04:29:59.790Z,18.80
2019-05-14T04:32:32.577Z,18.90
2019-05-14T04:35:04.574Z,18.60
2019-05-14T04:37:36.184Z,17.80
2019-05-14T04:40:10.493Z,19.10
2019-05-14T04:42:42.224Z,21.20
2019-05-14T04:45:13.470Z,20.30
2019-05-14T04:47:49.828Z,19.60
2019-05-14T04:50:25.482Z,19.60
2019-05-14T04:53:02.988Z,19.40
2019-05-14T04:55:34.331Z,19.00
2019-05-14T04:58:05.951Z,17.20
2019-05-14T05:00:39.142Z,15.30
2019-05-14T05:03:12.788Z,13.30
2019-05-14T05:05:44.123Z,12.10
2019-05-14T05:08:19.676Z,11.00
2019-05-14T05:10:49.838Z,10.70
2019-05-14T05:13:22.691Z,10.80
2019-05-14T05:15:54.035Z,13.30
2019-05-14T05:18:25.556Z,15.70
2019-05-14T05:20:58.323Z,18.40
2019-05-14T05:23:30.104Z,18.80
2019-05-14T05:26:01.421Z,20.60
2019-05-14T05:28:32.848Z,18.40
2019-05-14T05:31:04.817Z,19.50
2019-05-14T05:33:40.420Z,19.10
2019-05-14T05:36:12.148Z,18.70
2019-05-14T05:38:43.739Z,18.70
2019-05-14T05:41:15.555Z,18.30
2019-05-14T05:43:48.384Z,19.90
2019-05-14T05:46:20.589Z,19.30
2019-05-14T05:48:52.227Z,15.50
2019-05-14T05:51:23.772Z,15.10
2019-05-14T05:53:56.086Z,15.80
2019-05-14T05:56:28.825Z,14.10
2019-05-14T05:59:05.560Z,15.40
2019-05-14T06:01:45.307Z,16.60
2019-05-14T06:04:11.861Z,15.30
2019-05-14T06:06:44.515Z,15.80
2019-05-14T06:09:18.207Z,16.40
2019-05-14T06:11:50.713Z,15.80
2019-05-14T06:14:25.432Z,13.70
2019-05-14T06:16:58.928Z,15.10
2019-05-14T06:19:30.255Z,14.90
2019-05-14T06:22:04.175Z,13.90
2019-05-14T06:24:35.348Z,12.50
2019-05-14T06:27:09.192Z,12.20
2019-05-14T06:29:39.815Z,11.50
2019-05-14T06:32:11.687Z,11.60
2019-05-14T06:34:43.076Z,11.20
2019-05-14T06:37:14.871Z,11.20
2019-05-14T06:39:48.445Z,10.80
2019-05-14T06:42:19.778Z,11.20
2019-05-14T06:44:51.322Z,11.40
2019-05-14T06:47:22.974Z,11.30
2019-05-14T06:49:54.221Z,11.20
2019-05-14T06:52:29.159Z,11.10
2019-05-14T06:55:00.475Z,11.40
2019-05-14T06:57:33.288Z,11.00
2019-05-14T07:00:07.944Z,11.00
2019-05-14T07:02:43.585Z,11.40
2019-05-14T07:05:18.790Z,11.00
2019-05-14T07:07:54.161Z,10.70
2019-05-14T07:10:28.755Z,10.90
2019-05-14T07:12:59.623Z,10.90
2019-05-14T07:15:31.140Z,10.80
2019-05-14T07:18:03.138Z,11.30
2019-05-14T07:20:35.864Z,11.60
2019-05-14T07:23:08.257Z,11.10
2019-05-14T07:25:39.794Z,10.70
2019-05-14T07:28:11.279Z,11.10
2019-05-14T07:30:42.709Z,10.90
2019-05-14T07:33:14.032Z,10.90
2019-05-14T07:35:45.560Z,11.30
2019-05-14T07:38:19.481Z,11.30
2019-05-14T07:40:50.217Z,10.90
2019-05-14T07:43:24.303Z,11.10
2019-05-14T07:45:58.060Z,10.90
2019-05-14T07:48:28.980Z,11.10
2019-05-14T07:51:00.630Z,11.10
2019-05-14T07:53:38.747Z,11.10
2019-05-14T07:56:05.581Z,10.70
2019-05-14T07:58:38.650Z,10.70
2019-05-14T08:01:10.191Z,10.70
2019-05-14T08:03:41.538Z,10.60
2019-05-14T08:06:13.037Z,10.70
2019-05-14T08:08:44.696Z,10.70
2019-05-14T08:11:18.923Z,11.00
2019-05-14T08:13:50.017Z,10.80
2019-05-14T08:16:23.363Z,10.30
2019-05-14T08:18:54.868Z,10.30
2019-05-14T08:21:28.526Z,10.90
2019-05-14T08:23:59.451Z,10.70
2019-05-14T08:26:31.333Z,10.80
2019-05-14T08:29:02.724Z,10.20
2019-05-14T08:31:34.345Z,10.50
2019-05-14T08:34:06.694Z,10.60
2019-05-14T08:36:38.742Z,10.20
2019-05-14T08:39:10.072Z,10.30
2019-05-14T08:41:41.565Z,10.50
2019-05-14T08:44:15.521Z,10.30
2019-05-14T08:46:48.618Z,10.00
2019-05-14T08:49:37.243Z,10.40
2019-05-14T08:51:54.687Z,10.50
2019-05-14T08:54:27.866Z,10.50
2019-05-14T08:57:00.656Z,10.50
2019-05-14T08:59:32.294Z,10.10
2019-05-14T09:02:06.741Z,10.10
2019-05-14T09:04:42.965Z,10.20
2019-05-14T09:07:12.564Z,10.10
2019-05-14T09:09:44.342Z,9.90
2019-05-14T09:12:15.959Z,9.80
2019-05-14T09:14:48.456Z,10.20
2019-05-14T09:17:20.481Z,10.30
2019-05-14T09:20:02.094Z,10.20
2019-05-14T09:22:24.945Z,10.40
2019-05-14T09:24:59.885Z,10.20
2019-05-14T09:27:29.838Z,10.20
2019-05-14T09:30:01.523Z,10.00
2019-05-14T09:32:33.299Z,10.20
2019-05-14T09:35:04.986Z,10.10
2019-05-14T09:37:39.298Z,10.10
2019-05-14T09:40:09.846Z,9.80
2019-05-14T09:42:41.305Z,10.20
2019-05-14T09:45:12.761Z,10.40
2019-05-14T09:47:49.795Z,10.20
2019-05-14T09:50:23.090Z,10.30
2019-05-14T09:52:52.293Z,10.30
2019-05-14T09:55:23.659Z,10.30
2019-05-14T09:57:55.077Z,10.10
2019-05-14T10:00:26.701Z,10.30
2019-05-14T10:02:59.700Z,10.20
2019-05-14T10:05:32.069Z,10.40
2019-05-14T10:08:03.615Z,10.10
2019-05-14T10:10:36.149Z,10.20
2019-05-14T10:13:09.771Z,10.40
2019-05-14T10:15:40.925Z,10.10
2019-05-14T10:18:12.673Z,10.40
2019-05-14T10:20:46.112Z,10.50
2019-05-14T10:23:18.997Z,10.50
2019-05-14T10:25:51.135Z,10.50
2019-05-14T10:28:22.786Z,10.50
2019-05-14T10:30:54.220Z,10.40
2019-05-14T10:33:25.571Z,10.60
2019-05-14T10:35:58.890Z,11.10
2019-05-14T10:38:30.295Z,10.70
2019-05-14T10:41:02.132Z,10.50
2019-05-14T10:43:35.819Z,10.90
2019-05-14T10:46:09.085Z,11.20
2019-05-14T10:48:39.785Z,10.80
2019-05-14T10:51:11.250Z,10.70
2019-05-14T10:53:42.996Z,10.80
2019-05-14T10:56:19.064Z,11.20
2019-05-14T10:58:52.519Z,10.90
2019-05-14T11:01:24.025Z,11.20
2019-05-14T11:03:56.338Z,10.70
2019-05-14T11:06:29.600Z,10.40
2019-05-14T11:09:01.105Z,10.40
2019-05-14T11:11:33.985Z,10.40
2019-05-14T11:14:08.602Z,10.80
2019-05-14T11:16:41.839Z,10.50
2019-05-14T11:19:13.329Z,10.50
2019-05-14T11:21:45.036Z,10.40
2019-05-14T11:24:18.862Z,10.80
2019-05-14T11:26:50.404Z,10.60
2019-05-14T11:29:22.368Z,10.40
2019-05-14T11:31:54.338Z,10.30
2019-05-14T11:34:25.621Z,10.40
2019-05-14T11:36:58.899Z,10.40
2019-05-14T11:39:31.696Z,10.20
2019-05-14T11:42:03.850Z,10.40
2019-05-14T11:44:35.128Z,10.90
2019-05-14T11:47:09.096Z,10.70
2019-05-14T11:49:40.883Z,10.60
2019-05-14T11:52:12.421Z,10.50
2019-05-14T11:54:45.436Z,10.20
2019-05-14T11:57:19.276Z,10.50
2019-05-14T11:59:50.880Z,10.60
2019-05-14T12:02:22.765Z,10.30
2019-05-14T12:04:54.399Z,10.50
2019-05-14T12:07:27.946Z,10.60
2019-05-14T12:09:59.105Z,10.40
2019-05-14T12:12:31.059Z,10.10
2019-05-14T12:15:02.442Z,10.60
2019-05-14T12:17:34.425Z,10.20
2019-05-14T12:20:08.845Z,10.40
2019-05-14T12:22:41.921Z,10.10
2019-05-14T12:25:18.597Z,10.20
2019-05-14T12:27:49.788Z,10.50
2019-05-14T12:30:21.545Z,10.40
2019-05-14T12:32:58.839Z,10.50
2019-05-14T12:35:30.223Z,10.50
2019-05-14T12:38:01.548Z,10.80
2019-05-14T12:40:33.048Z,10.50
2019-05-14T12:43:09.473Z,10.40
2019-05-14T12:45:49.099Z,10.30
2019-05-14T12:48:15.309Z,10.10
2019-05-14T12:50:49.004Z,10.50
2019-05-14T12:53:24.038Z,10.40
2019-05-14T12:55:55.567Z,10.30
2019-05-14T12:58:29.588Z,10.60
2019-05-14T13:01:00.961Z,10.60
2019-05-14T13:03:32.262Z,10.40
2019-05-14T13:06:04.952Z,10.10
2019-05-14T13:08:38.786Z,9.80
2019-05-14T13:11:10.014Z,9.90
2019-05-14T13:13:42.820Z,10.00
2019-05-14T13:16:15.136Z,10.40
2019-05-14T13:18:49.816Z,10.20
2019-05-14T13:21:20.607Z,10.50
2019-05-14T13:23:52.213Z,10.50
2019-05-14T13:26:25.074Z,10.40
2019-05-14T13:28:59.409Z,10.40
2019-05-14T13:31:31.278Z,10.50
2019-05-14T13:34:02.604Z,10.70
2019-05-14T13:36:35.571Z,10.80
2019-05-14T13:39:09.295Z,10.30
2019-05-14T13:41:41.842Z,10.10
2019-05-14T13:44:23.693Z,10.20
2019-05-14T13:46:48.595Z,10.30
2019-05-14T13:49:20.628Z,10.50
2019-05-14T13:51:52.156Z,10.10
2019-05-14T13:54:23.851Z,10.20
2019-05-14T13:56:55.418Z,10.20
2019-05-14T13:59:28.407Z,10.40
2019-05-14T14:02:00.136Z,10.30
2019-05-14T14:04:31.613Z,10.30
2019-05-14T14:07:03.150Z,9.70
2019-05-14T14:09:34.627Z,9.90
2019-05-14T14:12:08.235Z,10.20
2019-05-14T14:14:39.673Z,10.00
2019-05-14T14:17:13.045Z,10.00
2019-05-14T14:19:44.521Z,9.90
2019-05-14T14:22:19.097Z,10.10
2019-05-14T14:24:49.801Z,10.00
2019-05-14T14:27:21.605Z,10.30
2019-05-14T14:29:55.137Z,10.30
2019-05-14T14:32:27.444Z,9.90
2019-05-14T14:35:01.445Z,9.90
2019-05-14T14:37:34.661Z,10.00
2019-05-14T14:40:09.292Z,10.20
2019-05-14T14:42:40.363Z,10.00
2019-05-14T14:45:29.977Z,10.20
2019-05-14T14:48:01.723Z,9.90
2019-05-14T14:50:32.995Z,10.00
2019-05-14T14:53:09.252Z,10.00
2019-05-14T14:56:00.979Z,10.00
2019-05-14T14:58:32.567Z,10.10
2019-05-14T15:01:04.151Z,9.90
2019-05-14T15:03:36.173Z,10.10
2019-05-14T15:06:11.834Z,9.90
2019-05-14T15:08:49.580Z,10.20
2019-05-14T15:11:21.615Z,9.90
2019-05-14T15:13:55.970Z,9.90
2019-05-14T15:16:29.189Z,9.70
2019-05-14T15:19:19.447Z,9.70
2019-05-14T15:21:51.565Z,9.80
2019-05-14T15:24:27.514Z,9.80
2019-05-14T15:27:08.069Z,9.80
2019-05-14T15:29:34.064Z,9.70
2019-05-14T15:32:09.307Z,9.70
2019-05-14T15:34:40.322Z,9.60
2019-05-14T15:37:19.845Z,9.70
2019-05-14T15:39:51.713Z,9.80
2019-05-14T15:42:23.052Z,10.10
2019-05-14T15:44:59.805Z,9.90
2019-05-14T15:47:31.955Z,9.80
2019-05-14T15:50:09.346Z,9.90
2019-05-14T15:52:41.214Z,9.90
2019-05-14T15:55:20.851Z,9.90
2019-05-14T15:57:52.397Z,9.90
2019-05-14T16:00:29.016Z,9.80
2019-05-14T16:03:02.793Z,9.70
2019-05-14T16:05:39.222Z,9.90
2019-05-14T16:08:10.389Z,9.70
2019-05-14T16:10:42.141Z,9.70
2019-05-14T16:13:20.901Z,9.40
2019-05-14T16:15:50.390Z,9.60
2019-05-14T16:18:22.607Z,9.70
2019-05-14T16:20:54.498Z,9.50
2019-05-14T16:23:28.182Z,9.40
2019-05-14T16:26:01.703Z,9.40
2019-05-14T16:28:39.121Z,9.50
2019-05-14T16:31:12.703Z,9.50
2019-05-14T16:33:49.701Z,9.60
2019-05-14T16:36:25.150Z,9.70
2019-05-14T16:39:23.292Z,9.60
2019-05-14T16:42:11.221Z,9.70
2019-05-14T16:44:48.933Z,9.60
2019-05-14T16:47:21.564Z,9.60
2019-05-14T16:49:53.023Z,9.50
2019-05-14T16:52:25.021Z,9.50
2019-05-14T16:55:14.969Z,9.40
2019-05-14T16:57:29.527Z,9.50
2019-05-14T17:00:01.965Z,9.60
2019-05-14T17:02:33.337Z,9.40
2019-05-14T17:05:05.562Z,9.40
2019-05-14T17:07:42.975Z,9.50
2019-05-14T17:10:18.212Z,9.40
2019-05-14T17:12:57.276Z,9.50
2019-05-14T17:15:35.289Z,9.40
2019-05-14T17:18:08.859Z,9.60
2019-05-14T17:20:42.052Z,9.70
2019-05-14T17:23:16.155Z,9.70
2019-05-14T17:25:48.982Z,9.60
2019-05-14T17:28:28.585Z,9.40
2019-05-14T17:31:42.829Z,9.50
2019-05-14T17:34:14.351Z,9.50
2019-05-14T17:36:48.351Z,9.50
2019-05-14T17:39:19.846Z,9.50
2019-05-14T17:41:53.411Z,9.60
2019-05-14T17:44:24.888Z,9.60
2019-05-14T17:46:58.562Z,9.50
2019-05-14T17:49:29.741Z,9.50
2019-05-14T17:52:09.594Z,9.40
2019-05-14T17:54:44.543Z,9.50
2019-05-14T17:57:24.457Z,9.40
2019-05-14T17:59:54.229Z,9.30
2019-05-14T18:02:28.588Z,9.40
2019-05-14T18:05:05.365Z,9.40
2019-05-14T18:07:41.266Z,9.30
2019-05-14T18:10:13.760Z,9.20
2019-05-14T18:13:01.433Z,9.30
2019-05-14T18:15:33.143Z,9.20
2019-05-14T18:18:18.411Z,9.20
2019-05-14T18:20:52.401Z,9.20
2019-05-14T18:23:24.978Z,9.20
2019-05-14T18:26:07.154Z,9.10
2019-05-14T18:28:32.193Z,9.20
2019-05-14T18:31:04.693Z,9.20
2019-05-14T18:33:39.944Z,9.30
2019-05-14T18:36:18.851Z,9.40
2019-05-14T18:38:54.129Z,9.20
2019-05-14T18:41:25.914Z,9.20
2019-05-14T18:44:00.567Z,9.10
2019-05-14T18:46:33.017Z,9.10
2019-05-14T18:49:08.569Z,9.20
2019-05-14T18:51:39.381Z,9.20
2019-05-14T18:54:10.982Z,9.10
2019-05-14T18:56:42.839Z,9.00
2019-05-14T18:59:15.311Z,9.00
2019-05-14T19:01:53.542Z,9.10
2019-05-14T19:04:27.901Z,9.10
2019-05-14T19:07:11.322Z,9.00
2019-05-14T19:09:46.185Z,9.10
2019-05-14T19:12:38.490Z,9.10
2019-05-14T19:15:10.065Z,9.10
2019-05-14T19:17:42.060Z,9.00
2019-05-14T19:20:20.222Z,8.90
2019-05-14T19:22:48.907Z,9.00
2019-05-14T19:25:20.435Z,9.00
2019-05-14T19:27:54.230Z,9.00
2019-05-14T19:30:24.989Z,9.00
2019-05-14T19:33:08.507Z,8.90
2019-05-14T19:35:49.446Z,9.00
2019-05-14T19:38:22.577Z,9.00
2019-05-14T19:41:08.651Z,9.00
2019-05-14T19:43:42.489Z,9.00
2019-05-14T19:46:14.397Z,9.10
2019-05-14T19:49:08.002Z,9.10
2019-05-14T19:51:45.579Z,9.10
2019-05-14T19:54:20.052Z,9.00
2019-05-14T19:57:24.505Z,9.00
2019-05-14T19:59:57.896Z,9.00
2019-05-14T20:02:51.012Z,9.00
2019-05-14T20:05:23.094Z,8.90
2019-05-14T20:07:59.537Z,9.00
2019-05-14T20:10:31.649Z,9.00
2019-05-14T20:13:03.877Z,9.00
2019-05-14T20:15:38.833Z,8.90
2019-05-14T20:18:12.894Z,8.90
2019-05-14T20:20:44.977Z,9.00
2019-05-14T20:23:20.607Z,9.00
2019-05-14T20:25:54.442Z,9.00
2019-05-14T20:28:27.202Z,9.00
2019-05-14T20:31:10.199Z,8.90
2019-05-14T20:33:48.470Z,8.90
2019-05-14T20:36:28.292Z,9.00
2019-05-14T20:39:08.651Z,8.90
2019-05-14T20:42:01.236Z,9.00
2019-05-14T20:44:38.439Z,9.00
2019-05-14T20:47:12.931Z,9.10
2019-05-14T20:49:46.375Z,9.00
2019-05-14T20:52:28.547Z,9.00
2019-05-14T20:55:09.702Z,9.00
2019-05-14T20:57:48.894Z,9.00
2019-05-14T21:00:34.740Z,8.90
2019-05-14T21:03:31.269Z,9.00
2019-05-14T21:06:20.806Z,8.90
2019-05-14T21:09:13.138Z,9.00
2019-05-14T21:11:52.468Z,9.00
2019-05-14T21:14:33.469Z,8.90
2019-05-14T21:17:20.942Z,8.90
2019-05-14T21:20:19.147Z,9.00
2019-05-14T21:22:52.844Z,8.90
2019-05-14T21:25:29.635Z,9.00
2019-05-14T21:29:21.855Z,8.90
2019-05-14T21:32:01.576Z,8.90
2019-05-14T21:34:42.829Z,8.90
2019-05-14T21:37:15.013Z,8.90
2019-05-14T21:39:48.909Z,8.90
2019-05-14T21:42:19.733Z,8.90
2019-05-14T21:44:52.164Z,8.90
2019-05-14T21:47:23.852Z,8.90
2019-05-14T21:49:55.471Z,9.00
2019-05-14T21:52:28.940Z,9.00
2019-05-14T21:55:00.066Z,8.90
2019-05-14T21:57:32.817Z,8.90
2019-05-14T22:00:11.057Z,9.00
2019-05-14T22:02:44.604Z,9.00
2019-05-14T22:05:18.807Z,9.00
2019-05-14T22:07:49.994Z,8.90
2019-05-14T22:10:22.490Z,8.90
2019-05-14T22:12:54.060Z,9.00
2019-05-14T22:15:25.403Z,9.00
2019-05-14T22:17:58.730Z,8.90
2019-05-14T22:20:31.869Z,8.90
2019-05-14T22:23:03.411Z,9.00
2019-05-14T22:25:35.888Z,9.00
2019-05-14T22:28:15.100Z,9.00
2019-05-14T22:30:40.418Z,9.00
2019-05-14T22:33:11.756Z,8.90
2019-05-14T22:35:43.365Z,9.00
2019-05-14T22:38:15.080Z,8.90
2019-05-14T22:40:48.244Z,8.90
2019-05-14T22:43:20.263Z,8.90
2019-05-14T22:45:51.817Z,8.90
2019-05-14T22:48:23.203Z,9.00
2019-05-14T22:50:54.733Z,9.00
2019-05-14T22:53:27.850Z,8.90
2019-05-14T22:55:59.158Z,8.90
2019-05-14T22:58:31.676Z,8.90
2019-05-14T23:01:14.244Z,9.00
2019-05-14T23:03:36.267Z,9.00
2019-05-14T23:06:08.993Z,9.00
2019-05-14T23:08:40.783Z,9.00
2019-05-14T23:11:12.558Z,9.00
2019-05-14T23:13:44.247Z,9.00
2019-05-14T23:16:30.160Z,9.10
2019-05-14T23:18:49.332Z,9.00
2019-05-14T23:21:21.230Z,9.00
2019-05-14T23:23:52.717Z,8.90
2019-05-14T23:26:25.194Z,9.00
2019-05-14T23:28:58.586Z,9.00
2019-05-14T23:31:29.650Z,8.90
2019-05-14T23:34:01.187Z,9.00
2019-05-14T23:36:32.836Z,8.90
2019-05-14T23:39:08.696Z,8.90
2019-05-14T23:41:40.253Z,8.90
2019-05-14T23:44:12.564Z,8.80
2019-05-14T23:46:44.143Z,8.90
2019-05-14T23:49:15.732Z,8.90
2019-05-14T23:51:47.955Z,8.80
2019-05-14T23:54:20.965Z,8.90
2019-05-14T23:56:52.809Z,8.90
2019-05-14T23:59:25.024Z,8.90
